Time;durP1;ratioP1;P1;durP2;ratioP2;P2;SDS_P1;SDS_P2;PMS_P1;PMS_P2;Temp;Humidity;BMP_temperature;BMP_pressure;BME280_temperature;BME280_humidity;BME280_pressure;Samples;Min_cycle;Max_cycle;Signal;HPM_P1;HPM_P2
2022/02/18 00:00:21;;;;;;;0.20;0.00;;;;;;;;;;5042250;28;20025;-58
2022/02/18 00:02:47;;;;;;;0.32;0.00;;;;;;;;;;5036743;28;20037;-58
2022/02/18 00:05:12;;;;;;;0.30;0.05;;;;;;;;;;5035387;28;20026;-58
2022/02/18 00:07:37;;;;;;;0.43;0.00;;;;;;;;;;5033320;28;20065;-58
2022/02/18 00:10:03;;;;;;;0.65;0.00;;;;;;;;;;5026247;28;20028;-58
2022/02/18 00:12:29;;;;;;;0.68;0.08;;;;;;;;;;5035688;28;20051;-58
2022/02/18 00:14:54;;;;;;;0.28;0.10;;;;;;;;;;5034534;28;20040;-58
2022/02/18 00:17:19;;;;;;;1.40;0.10;;;;;;;;;;5033584;28;20036;-58
2022/02/18 00:19:44;;;;;;;0.40;0.00;;;;;;;;;;5047306;28;20272;-59
2022/02/18 00:22:09;;;;;;;0.60;0.00;;;;;;;;;;5031669;28;20080;-58
2022/02/18 00:24:35;;;;;;;1.05;0.00;;;;;;;;;;5022797;28;20331;-59
2022/02/18 00:27:00;;;;;;;0.65;0.00;;;;;;;;;;5043384;28;20071;-58
2022/02/18 00:29:25;;;;;;;0.50;0.00;;;;;;;;;;5026841;28;20022;-58
2022/02/18 00:31:50;;;;;;;0.47;0.05;;;;;;;;;;5035144;28;20044;-58
2022/02/18 00:34:16;;;;;;;0.45;0.00;;;;;;;;;;5035637;28;20031;-59
2022/02/18 00:36:41;;;;;;;0.30;0.00;;;;;;;;;;5039278;28;20083;-58
2022/02/18 00:39:06;;;;;;;0.67;0.10;;;;;;;;;;5045085;28;20041;-58
2022/02/18 00:41:31;;;;;;;0.40;0.00;;;;;;;;;;5028227;28;21729;-59
2022/02/18 00:43:56;;;;;;;0.40;0.00;;;;;;;;;;5019384;28;20056;-58
2022/02/18 00:46:22;;;;;;;0.15;0.00;;;;;;;;;;5046139;28;20260;-58
2022/02/18 00:48:47;;;;;;;0.90;0.00;;;;;;;;;;5044765;28;20444;-58
2022/02/18 00:51:12;;;;;;;0.17;0.00;;;;;;;;;;5054713;28;20025;-59
2022/02/18 00:53:37;;;;;;;0.90;0.10;;;;;;;;;;5018272;28;20413;-58
2022/02/18 00:56:03;;;;;;;0.45;0.00;;;;;;;;;;5030128;28;20316;-58
2022/02/18 00:58:28;;;;;;;1.27;0.20;;;;;;;;;;5036869;28;20067;-58
2022/02/18 01:00:53;;;;;;;1.33;0.10;;;;;;;;;;5032984;28;20014;-58
2022/02/18 01:03:18;;;;;;;1.10;0.00;;;;;;;;;;5040375;28;20283;-58
2022/02/18 01:05:44;;;;;;;0.20;0.03;;;;;;;;;;5046214;28;20033;-59
2022/02/18 01:08:09;;;;;;;0.40;0.00;;;;;;;;;;5040146;28;20480;-58
2022/02/18 01:10:35;;;;;;;0.63;0.00;;;;;;;;;;5037591;28;20029;-59
2022/02/18 01:13:00;;;;;;;0.20;0.03;;;;;;;;;;5054173;28;20036;-59
2022/02/18 01:15:26;;;;;;;0.38;0.05;;;;;;;;;;5039247;28;20079;-58
2022/02/18 01:17:51;;;;;;;0.28;0.10;;;;;;;;;;5026523;28;20432;-59
2022/02/18 01:20:16;;;;;;;0.60;0.00;;;;;;;;;;5049385;28;20033;-58
2022/02/18 01:22:42;;;;;;;0.60;0.00;;;;;;;;;;5025253;28;20479;-58
2022/02/18 01:25:09;;;;;;;0.10;0.00;;;;;;;;;;5040820;28;20022;-58
2022/02/18 01:27:34;;;;;;;1.10;0.00;;;;;;;;;;5033377;28;20033;-59
2022/02/18 01:29:59;;;;;;;2.05;0.57;;;;;;;;;;5036484;28;20374;-59
2022/02/18 01:32:24;;;;;;;0.55;0.00;;;;;;;;;;5037822;28;20026;-59
2022/02/18 01:34:50;;;;;;;0.20;0.00;;;;;;;;;;5014548;28;20103;-59
2022/02/18 01:37:15;;;;;;;0.30;0.00;;;;;;;;;;5039193;28;20280;-58
2022/02/18 01:39:40;;;;;;;0.10;0.00;;;;;;;;;;5040902;28;20064;-59
2022/02/18 01:42:05;;;;;;;0.45;0.10;;;;;;;;;;5036244;28;20634;-58
2022/02/18 01:44:32;;;;;;;0.20;0.00;;;;;;;;;;5049905;28;20060;-58
2022/02/18 01:46:57;;;;;;;0.20;0.00;;;;;;;;;;5040327;28;20037;-59
2022/02/18 01:49:22;;;;;;;0.30;0.00;;;;;;;;;;5033063;28;20367;-59
2022/02/18 01:51:48;;;;;;;1.03;0.20;;;;;;;;;;5021393;28;20360;-59
2022/02/18 01:54:13;;;;;;;1.17;0.00;;;;;;;;;;5029152;28;20859;-59
2022/02/18 01:56:38;;;;;;;0.27;0.00;;;;;;;;;;5032662;28;20335;-59
2022/02/18 01:59:04;;;;;;;0.40;0.10;;;;;;;;;;5037292;28;20810;-59
2022/02/18 02:01:29;;;;;;;0.40;0.00;;;;;;;;;;5034712;28;20037;-58
2022/02/18 02:03:55;;;;;;;0.60;0.00;;;;;;;;;;5045698;28;20281;-59
2022/02/18 02:06:20;;;;;;;0.22;0.00;;;;;;;;;;5034179;28;20287;-58
2022/02/18 02:08:45;;;;;;;0.13;0.10;;;;;;;;;;5045711;28;20183;-58
2022/02/18 02:11:10;;;;;;;0.17;0.00;;;;;;;;;;5051603;28;20394;-58
2022/02/18 02:13:40;;;;;;;0.35;0.00;;;;;;;;;;5042700;28;20036;-58
2022/02/18 02:16:05;;;;;;;0.45;0.10;;;;;;;;;;5045411;28;20021;-59
2022/02/18 02:18:31;;;;;;;0.52;0.00;;;;;;;;;;5051585;28;20079;-58
2022/02/18 02:20:56;;;;;;;0.43;0.10;;;;;;;;;;5045785;28;20048;-58
2022/02/18 02:23:21;;;;;;;0.10;0.00;;;;;;;;;;5026291;28;20033;-58
2022/02/18 02:25:46;;;;;;;0.22;0.10;;;;;;;;;;5029542;28;20427;-58
2022/02/18 02:28:12;;;;;;;0.30;0.10;;;;;;;;;;5030217;28;20025;-58
2022/02/18 02:30:37;;;;;;;0.40;0.08;;;;;;;;;;5041969;28;20434;-58
2022/02/18 02:33:02;;;;;;;0.30;0.00;;;;;;;;;;5037507;28;20504;-59
2022/02/18 02:35:28;;;;;;;0.52;0.30;;;;;;;;;;5036096;28;20045;-58
2022/02/18 02:37:54;;;;;;;0.32;0.00;;;;;;;;;;5033802;28;20079;-58
2022/02/18 02:40:19;;;;;;;0.77;0.10;;;;;;;;;;5036322;28;20024;-58
2022/02/18 02:42:46;;;;;;;0.65;0.10;;;;;;;;;;5044025;28;20028;-58
2022/02/18 02:45:11;;;;;;;1.58;0.13;;;;;;;;;;5036440;28;20029;-59
2022/02/18 02:47:41;;;;;;;0.75;0.10;;;;;;;;;;5038989;28;20607;-59
2022/02/18 02:50:07;;;;;;;0.43;0.03;;;;;;;;;;5043530;28;20100;-58
2022/02/18 02:52:32;;;;;;;0.75;0.10;;;;;;;;;;5035689;28;20545;-59
2022/02/18 02:54:57;;;;;;;0.30;0.10;;;;;;;;;;5038647;28;20037;-59
2022/02/18 02:57:22;;;;;;;0.68;0.10;;;;;;;;;;5039526;28;20330;-58
2022/02/18 02:59:48;;;;;;;0.30;0.00;;;;;;;;;;5045373;28;20254;-58
2022/02/18 03:02:13;;;;;;;0.55;0.00;;;;;;;;;;5040531;28;20371;-58
2022/02/18 03:04:38;;;;;;;0.30;0.08;;;;;;;;;;5052640;28;20469;-59
2022/02/18 03:07:03;;;;;;;0.32;0.00;;;;;;;;;;5047758;28;20385;-59
2022/02/18 03:09:29;;;;;;;1.30;0.00;;;;;;;;;;5035884;28;20030;-58
2022/02/18 03:11:54;;;;;;;0.73;0.03;;;;;;;;;;5046720;28;20370;-59
2022/02/18 03:14:19;;;;;;;0.43;0.00;;;;;;;;;;5041237;28;20859;-59
2022/02/18 03:16:44;;;;;;;0.93;0.10;;;;;;;;;;5029507;28;20029;-58
2022/02/18 03:19:10;;;;;;;0.45;0.10;;;;;;;;;;5046789;28;20028;-59
2022/02/18 03:21:35;;;;;;;0.20;0.00;;;;;;;;;;5033080;28;20048;-59
2022/02/18 03:24:01;;;;;;;0.10;0.00;;;;;;;;;;5028534;28;20056;-59
2022/02/18 03:26:26;;;;;;;0.40;0.10;;;;;;;;;;5037937;28;20504;-58
2022/02/18 03:28:51;;;;;;;0.57;0.10;;;;;;;;;;5049797;28;20329;-59
2022/02/18 03:31:16;;;;;;;1.02;0.10;;;;;;;;;;5024035;28;20276;-58
2022/02/18 03:33:41;;;;;;;0.20;0.00;;;;;;;;;;5022031;28;20025;-58
2022/02/18 03:36:07;;;;;;;1.02;0.17;;;;;;;;;;5044322;28;20060;-58
2022/02/18 03:38:33;;;;;;;0.55;0.00;;;;;;;;;;5047238;28;20029;-58
2022/02/18 03:40:58;;;;;;;0.88;0.10;;;;;;;;;;5034992;28;20500;-58
2022/02/18 03:43:23;;;;;;;0.30;0.03;;;;;;;;;;5025834;28;20032;-58
2022/02/18 03:45:49;;;;;;;1.20;0.00;;;;;;;;;;5032191;28;20493;-59
2022/02/18 03:48:14;;;;;;;0.43;0.03;;;;;;;;;;5012233;28;20029;-58
2022/02/18 03:50:40;;;;;;;0.90;0.00;;;;;;;;;;5023310;28;20639;-57
2022/02/18 03:53:05;;;;;;;0.60;0.08;;;;;;;;;;5024380;28;20415;-59
2022/02/18 03:55:31;;;;;;;0.15;0.00;;;;;;;;;;5025065;28;20120;-59
2022/02/18 03:57:56;;;;;;;0.40;0.00;;;;;;;;;;5036743;28;20042;-58
2022/02/18 04:00:21;;;;;;;0.30;0.00;;;;;;;;;;5041373;28;20029;-58
2022/02/18 04:02:47;;;;;;;0.75;0.10;;;;;;;;;;5036805;28;20021;-58
2022/02/18 04:05:12;;;;;;;0.40;0.10;;;;;;;;;;5041234;28;20537;-59
2022/02/18 04:07:37;;;;;;;0.97;0.07;;;;;;;;;;5045730;28;20036;-59
2022/02/18 04:10:03;;;;;;;0.33;0.00;;;;;;;;;;5033178;28;20302;-58
2022/02/18 04:12:28;;;;;;;0.17;0.00;;;;;;;;;;5042332;28;20272;-59
2022/02/18 04:14:54;;;;;;;0.95;0.00;;;;;;;;;;5025365;28;20033;-59
2022/02/18 04:17:19;;;;;;;0.43;0.00;;;;;;;;;;5036622;28;20591;-58
2022/02/18 04:19:44;;;;;;;0.38;0.00;;;;;;;;;;5042163;28;20025;-59
2022/02/18 04:22:09;;;;;;;1.13;0.10;;;;;;;;;;5026326;28;20127;-58
2022/02/18 04:24:34;;;;;;;0.10;0.00;;;;;;;;;;5025050;28;20319;-58
2022/02/18 04:27:00;;;;;;;0.47;0.10;;;;;;;;;;5029866;28;20770;-58
2022/02/18 04:29:25;;;;;;;0.63;0.30;;;;;;;;;;5039243;28;20017;-58
2022/02/18 04:31:50;;;;;;;0.40;0.00;;;;;;;;;;5028417;28;20697;-58
2022/02/18 04:34:15;;;;;;;0.32;0.00;;;;;;;;;;5036309;28;20017;-59
2022/02/18 04:36:41;;;;;;;0.10;0.00;;;;;;;;;;5031935;28;20026;-59
2022/02/18 04:39:06;;;;;;;0.30;0.00;;;;;;;;;;5035249;28;20272;-58
2022/02/18 04:41:33;;;;;;;0.00;0.00;;;;;;;;;;5018928;28;20037;-58
2022/02/18 04:43:58;;;;;;;0.77;0.10;;;;;;;;;;5025436;28;20036;-58
2022/02/18 04:46:23;;;;;;;1.02;0.10;;;;;;;;;;5031953;28;20025;-59
2022/02/18 04:48:48;;;;;;;0.20;0.00;;;;;;;;;;5030011;28;20401;-59
2022/02/18 04:51:14;;;;;;;0.33;0.10;;;;;;;;;;5030259;28;20384;-59
2022/02/18 04:53:39;;;;;;;0.20;0.00;;;;;;;;;;5021290;28;20283;-59
2022/02/18 04:56:05;;;;;;;0.30;0.00;;;;;;;;;;5025226;28;20300;-58
2022/02/18 04:58:30;;;;;;;0.40;0.00;;;;;;;;;;5042502;28;20036;-58
2022/02/18 05:00:55;;;;;;;0.40;0.00;;;;;;;;;;5035603;28;20043;-58
2022/02/18 05:03:20;;;;;;;0.10;0.00;;;;;;;;;;5043145;28;20036;-58
2022/02/18 05:05:46;;;;;;;0.13;0.00;;;;;;;;;;5041084;28;20112;-59
2022/02/18 05:08:11;;;;;;;0.20;0.00;;;;;;;;;;5045173;28;20071;-58
2022/02/18 05:10:37;;;;;;;0.20;0.00;;;;;;;;;;5032594;28;20280;-58
2022/02/18 05:13:02;;;;;;;0.10;0.00;;;;;;;;;;5035310;28;20051;-58
2022/02/18 05:15:27;;;;;;;0.30;0.00;;;;;;;;;;5038059;28;20017;-58
2022/02/18 05:17:52;;;;;;;0.40;0.10;;;;;;;;;;5039221;28;20111;-58
2022/02/18 05:20:18;;;;;;;0.27;0.00;;;;;;;;;;5040724;28;20076;-58
2022/02/18 05:22:43;;;;;;;0.17;0.08;;;;;;;;;;5031531;28;20298;-58
2022/02/18 05:25:08;;;;;;;0.40;0.00;;;;;;;;;;5038359;28;20117;-58
2022/02/18 05:27:34;;;;;;;0.80;0.10;;;;;;;;;;5031707;28;20390;-57
2022/02/18 05:29:59;;;;;;;0.43;0.10;;;;;;;;;;5035155;28;20471;-58
2022/02/18 05:32:24;;;;;;;0.30;0.10;;;;;;;;;;5032970;28;20296;-58
2022/02/18 05:34:49;;;;;;;0.20;0.00;;;;;;;;;;5037742;28;20045;-58
2022/02/18 05:37:15;;;;;;;0.13;0.00;;;;;;;;;;5038066;28;20025;-58
2022/02/18 05:39:40;;;;;;;0.38;0.00;;;;;;;;;;5029995;28;20037;-58
2022/02/18 05:42:05;;;;;;;0.13;0.00;;;;;;;;;;5016420;28;20030;-58
2022/02/18 05:44:34;;;;;;;0.82;0.20;;;;;;;;;;5034828;28;20320;-57
2022/02/18 05:47:00;;;;;;;0.35;0.00;;;;;;;;;;5025412;28;20077;-58
2022/02/18 05:49:25;;;;;;;0.57;0.00;;;;;;;;;;5039180;28;20053;-58
2022/02/18 05:51:51;;;;;;;0.32;0.00;;;;;;;;;;5045564;28;20455;-58
2022/02/18 05:54:16;;;;;;;0.32;0.00;;;;;;;;;;5025634;28;20070;-58
2022/02/18 05:56:41;;;;;;;0.38;0.10;;;;;;;;;;5037276;28;20029;-58
2022/02/18 05:59:07;;;;;;;0.60;0.10;;;;;;;;;;5033787;28;20072;-58
2022/02/18 06:01:32;;;;;;;0.52;0.10;;;;;;;;;;5033365;28;20617;-58
2022/02/18 06:03:57;;;;;;;0.20;0.00;;;;;;;;;;5024356;28;20026;-58
2022/02/18 06:06:22;;;;;;;1.10;0.10;;;;;;;;;;5034354;28;20024;-58
2022/02/18 06:08:48;;;;;;;0.52;0.10;;;;;;;;;;5046951;28;20070;-58
2022/02/18 06:11:13;;;;;;;0.35;0.00;;;;;;;;;;5035435;28;20022;-57
2022/02/18 06:13:38;;;;;;;0.30;0.00;;;;;;;;;;5046998;28;20032;-58
2022/02/18 06:16:03;;;;;;;0.68;0.00;;;;;;;;;;5048904;28;20271;-58
2022/02/18 06:18:28;;;;;;;0.50;0.05;;;;;;;;;;5040188;28;20033;-57
2022/02/18 06:20:54;;;;;;;0.70;0.10;;;;;;;;;;5036492;28;20029;-58
2022/02/18 06:23:19;;;;;;;0.87;0.00;;;;;;;;;;5026227;28;20026;-57
2022/02/18 06:25:44;;;;;;;0.40;0.03;;;;;;;;;;5043917;28;20322;-58
2022/02/18 06:28:11;;;;;;;0.47;0.07;;;;;;;;;;5038757;28;20845;-58
2022/02/18 06:30:37;;;;;;;0.30;0.00;;;;;;;;;;5034104;28;20366;-58
2022/02/18 06:33:04;;;;;;;0.35;0.10;;;;;;;;;;5046256;28;20565;-58
2022/02/18 06:35:29;;;;;;;0.50;0.00;;;;;;;;;;5041414;28;20017;-58
2022/02/18 06:37:54;;;;;;;0.75;0.10;;;;;;;;;;5030664;28;20135;-58
2022/02/18 06:40:19;;;;;;;0.82;0.05;;;;;;;;;;5031395;28;20441;-58
2022/02/18 06:42:45;;;;;;;1.77;0.20;;;;;;;;;;5039673;28;20028;-58
2022/02/18 06:45:10;;;;;;;0.20;0.00;;;;;;;;;;5043597;28;20295;-58
2022/02/18 06:47:35;;;;;;;0.85;0.10;;;;;;;;;;5038359;28;20040;-58
2022/02/18 06:50:00;;;;;;;0.50;0.10;;;;;;;;;;5052438;28;20036;-58
2022/02/18 06:52:25;;;;;;;0.73;0.00;;;;;;;;;;5022770;28;20277;-58
2022/02/18 06:54:50;;;;;;;0.40;0.10;;;;;;;;;;5030474;28;20699;-58
2022/02/18 06:57:16;;;;;;;0.70;0.10;;;;;;;;;;5016497;28;20291;-58
2022/02/18 06:59:41;;;;;;;0.55;0.00;;;;;;;;;;5026721;28;20285;-58
2022/02/18 07:02:07;;;;;;;0.15;0.00;;;;;;;;;;5030276;28;20028;-58
2022/02/18 07:04:33;;;;;;;0.65;0.10;;;;;;;;;;5034610;28;20029;-58
2022/02/18 07:06:58;;;;;;;0.95;0.10;;;;;;;;;;5022025;28;20042;-58
2022/02/18 07:09:23;;;;;;;0.60;0.10;;;;;;;;;;5025917;28;20018;-58
2022/02/18 07:11:48;;;;;;;0.80;0.10;;;;;;;;;;5008894;28;20034;-58
2022/02/18 07:14:13;;;;;;;0.22;0.00;;;;;;;;;;5029647;28;20264;-58
2022/02/18 07:16:44;;;;;;;0.70;0.10;;;;;;;;;;5029480;28;20068;-58
2022/02/18 07:19:10;;;;;;;0.50;0.10;;;;;;;;;;5022334;28;20022;-61
2022/02/18 07:21:35;;;;;;;0.77;0.20;;;;;;;;;;5027699;28;20037;-61
2022/02/18 07:24:00;;;;;;;0.35;0.00;;;;;;;;;;5021578;28;20059;-62
2022/02/18 07:26:26;;;;;;;0.55;0.10;;;;;;;;;;5027676;28;20029;-61
2022/02/18 07:28:51;;;;;;;0.60;0.10;;;;;;;;;;5024129;28;20034;-61
2022/02/18 07:31:16;;;;;;;0.90;0.20;;;;;;;;;;5032265;28;20493;-58
2022/02/18 07:33:41;;;;;;;1.67;0.10;;;;;;;;;;5029740;28;20276;-59
2022/02/18 07:36:06;;;;;;;0.17;0.00;;;;;;;;;;5026440;28;20280;-59
2022/02/18 07:38:31;;;;;;;2.67;0.10;;;;;;;;;;5024087;28;20295;-58
2022/02/18 07:40:57;;;;;;;0.67;0.10;;;;;;;;;;5026356;28;20337;-58
2022/02/18 07:43:22;;;;;;;2.60;0.10;;;;;;;;;;5031378;28;20745;-58
2022/02/18 07:45:47;;;;;;;4.13;0.20;;;;;;;;;;5024190;28;20283;-58
2022/02/18 07:48:13;;;;;;;0.57;0.10;;;;;;;;;;5028273;28;20025;-58
2022/02/18 07:50:38;;;;;;;0.40;0.00;;;;;;;;;;5019141;28;20066;-58
2022/02/18 07:53:03;;;;;;;0.65;0.03;;;;;;;;;;5028109;28;20010;-58
2022/02/18 07:55:28;;;;;;;0.37;0.20;;;;;;;;;;5025094;28;20084;-58
2022/02/18 07:57:54;;;;;;;0.85;0.20;;;;;;;;;;5019960;28;20269;-57
2022/02/18 08:00:19;;;;;;;1.35;0.20;;;;;;;;;;5029010;28;20485;-58
2022/02/18 08:02:44;;;;;;;1.88;0.40;;;;;;;;;;5043423;28;20551;-58
2022/02/18 08:05:10;;;;;;;2.03;0.25;;;;;;;;;;5036252;28;20032;-58
2022/02/18 08:07:35;;;;;;;0.65;0.10;;;;;;;;;;5025705;28;20044;-58
2022/02/18 08:10:00;;;;;;;2.50;0.20;;;;;;;;;;5021469;28;20494;-58
2022/02/18 08:12:26;;;;;;;1.50;0.30;;;;;;;;;;5032376;28;20021;-57
2022/02/18 08:14:51;;;;;;;0.73;0.13;;;;;;;;;;5031426;28;20482;-58
2022/02/18 08:17:16;;;;;;;0.90;0.17;;;;;;;;;;5028864;28;20037;-58
2022/02/18 08:19:42;;;;;;;1.17;0.10;;;;;;;;;;5037380;28;20290;-57
2022/02/18 08:22:07;;;;;;;0.90;0.20;;;;;;;;;;5029877;28;20314;-58
2022/02/18 08:24:32;;;;;;;1.83;0.30;;;;;;;;;;5014878;28;20026;-58
2022/02/18 08:26:57;;;;;;;1.75;0.35;;;;;;;;;;5013843;28;20434;-58
2022/02/18 08:29:23;;;;;;;2.47;0.10;;;;;;;;;;5023826;28;20025;-57
2022/02/18 08:31:48;;;;;;;0.98;0.10;;;;;;;;;;5020925;28;20088;-58
2022/02/18 08:34:14;;;;;;;2.28;0.20;;;;;;;;;;5020967;28;20080;-58
2022/02/18 08:36:39;;;;;;;1.67;0.10;;;;;;;;;;5019275;28;20014;-58
2022/02/18 08:39:05;;;;;;;0.93;0.20;;;;;;;;;;5021868;28;20026;-58
2022/02/18 08:41:31;;;;;;;1.08;0.20;;;;;;;;;;5025910;28;20037;-58
2022/02/18 08:43:58;;;;;;;1.75;0.30;;;;;;;;;;5035737;28;20017;-58
2022/02/18 08:46:23;;;;;;;0.88;0.10;;;;;;;;;;5045235;28;20103;-58
2022/02/18 08:48:49;;;;;;;1.65;0.45;;;;;;;;;;5030233;28;20477;-58
2022/02/18 08:51:14;;;;;;;0.80;0.10;;;;;;;;;;5020564;28;20049;-58
2022/02/18 08:53:39;;;;;;;2.00;0.30;;;;;;;;;;5016106;28;20140;-58
2022/02/18 08:56:06;;;;;;;1.25;0.20;;;;;;;;;;5025376;28;20292;-57
2022/02/18 08:58:31;;;;;;;1.63;0.28;;;;;;;;;;5011299;28;20045;-57
2022/02/18 09:00:57;;;;;;;1.85;0.20;;;;;;;;;;5023510;28;20025;-58
2022/02/18 09:03:22;;;;;;;1.60;0.20;;;;;;;;;;5038239;28;20024;-58
2022/02/18 09:05:47;;;;;;;1.90;0.22;;;;;;;;;;5014660;28;20017;-58
2022/02/18 09:08:13;;;;;;;2.13;0.43;;;;;;;;;;5022128;28;20030;-57
2022/02/18 09:10:38;;;;;;;2.28;0.60;;;;;;;;;;5022125;28;20027;-58
2022/02/18 09:13:04;;;;;;;1.13;0.15;;;;;;;;;;5024273;28;20087;-58
2022/02/18 09:15:29;;;;;;;2.45;0.30;;;;;;;;;;5022218;28;20300;-58
2022/02/18 09:17:54;;;;;;;1.77;0.52;;;;;;;;;;5014923;28;20054;-58
2022/02/18 09:20:19;;;;;;;3.45;0.75;;;;;;;;;;5027852;28;20033;-58
2022/02/18 09:22:45;;;;;;;1.63;0.30;;;;;;;;;;5021401;28;20030;-57
2022/02/18 09:25:10;;;;;;;1.38;0.20;;;;;;;;;;5030522;28;20651;-58
2022/02/18 09:27:35;;;;;;;0.40;0.10;;;;;;;;;;5022831;28;20037;-58
2022/02/18 09:30:02;;;;;;;0.65;0.10;;;;;;;;;;5016126;28;20478;-58
2022/02/18 09:32:27;;;;;;;0.95;0.10;;;;;;;;;;5030242;28;20378;-58
2022/02/18 09:34:53;;;;;;;1.10;0.20;;;;;;;;;;5025755;28;20042;-58
2022/02/18 09:37:18;;;;;;;1.67;0.30;;;;;;;;;;5024603;28;20033;-58
2022/02/18 09:39:43;;;;;;;1.35;0.40;;;;;;;;;;5028677;28;20025;-58
2022/02/18 09:42:17;;;;;;;1.00;0.20;;;;;;;;;;5024969;28;20486;-58
2022/02/18 09:44:43;;;;;;;1.55;0.10;;;;;;;;;;5027052;28;20091;-58
2022/02/18 09:47:12;;;;;;;1.58;0.30;;;;;;;;;;5034294;28;20049;-58
2022/02/18 09:49:37;;;;;;;1.48;0.22;;;;;;;;;;5030139;28;20394;-58
2022/02/18 09:52:03;;;;;;;1.20;0.28;;;;;;;;;;5022367;28;20467;-58
2022/02/18 09:54:28;;;;;;;2.72;0.30;;;;;;;;;;5019498;28;20096;-58
2022/02/18 09:56:53;;;;;;;1.30;0.20;;;;;;;;;;5022573;28;20053;-58
2022/02/18 09:59:18;;;;;;;1.77;0.25;;;;;;;;;;5023729;28;20063;-58
2022/02/18 10:01:44;;;;;;;1.00;0.20;;;;;;;;;;5023533;28;20057;-58
2022/02/18 10:04:10;;;;;;;1.60;0.68;;;;;;;;;;5028585;28;20034;-58
2022/02/18 10:06:37;;;;;;;1.58;0.30;;;;;;;;;;5038897;28;20017;-58
2022/02/18 10:09:02;;;;;;;1.13;0.15;;;;;;;;;;5040910;28;20081;-59
2022/02/18 10:11:33;;;;;;;1.02;0.25;;;;;;;;;;5015057;28;20018;-59
2022/02/18 10:13:58;;;;;;;0.50;0.20;;;;;;;;;;5018222;28;20025;-59
2022/02/18 10:16:24;;;;;;;1.02;0.20;;;;;;;;;;5021158;28;20390;-59
2022/02/18 10:18:51;;;;;;;0.60;0.20;;;;;;;;;;5014536;28;20057;-58
2022/02/18 10:21:16;;;;;;;0.75;0.10;;;;;;;;;;5012941;28;20049;-59
2022/02/18 10:23:41;;;;;;;0.90;0.10;;;;;;;;;;5020333;28;20526;-59
2022/02/18 10:26:06;;;;;;;2.40;0.20;;;;;;;;;;5030941;28;20764;-59
2022/02/18 10:28:31;;;;;;;1.00;0.20;;;;;;;;;;5028098;28;20038;-59
2022/02/18 10:31:02;;;;;;;0.45;0.10;;;;;;;;;;5059333;28;20322;-59
2022/02/18 10:33:27;;;;;;;0.95;0.20;;;;;;;;;;5016879;28;20046;-59
2022/02/18 10:36:02;;;;;;;0.60;0.10;;;;;;;;;;5023328;28;20064;-59
2022/02/18 10:38:37;;;;;;;0.85;0.22;;;;;;;;;;5032761;28;20056;-59
2022/02/18 10:41:24;;;;;;;1.58;0.20;;;;;;;;;;5032370;28;20041;-58
2022/02/18 10:43:50;;;;;;;0.70;0.30;;;;;;;;;;5014412;28;20021;-58
2022/02/18 10:46:15;;;;;;;1.00;0.25;;;;;;;;;;5015609;28;20037;-58
2022/02/18 10:48:48;;;;;;;0.52;0.20;;;;;;;;;;5024412;28;20026;-59
2022/02/18 10:51:14;;;;;;;1.42;0.20;;;;;;;;;;5022189;28;20552;-59
2022/02/18 10:53:47;;;;;;;0.75;0.10;;;;;;;;;;5015115;28;20041;-59
2022/02/18 10:56:13;;;;;;;0.95;0.20;;;;;;;;;;5028736;28;20053;-58
2022/02/18 10:58:41;;;;;;;0.77;0.10;;;;;;;;;;5013254;28;20026;-59
2022/02/18 11:01:16;;;;;;;1.63;0.10;;;;;;;;;;5015797;28;20451;-59
2022/02/18 11:03:43;;;;;;;0.95;0.10;;;;;;;;;;5023394;28;20029;-59
2022/02/18 11:06:11;;;;;;;0.55;0.20;;;;;;;;;;5022856;28;20021;-59
2022/02/18 11:08:36;;;;;;;0.47;0.22;;;;;;;;;;5032649;28;20033;-58
2022/02/18 11:11:11;;;;;;;0.50;0.10;;;;;;;;;;5015170;28;20497;-59
2022/02/18 11:13:37;;;;;;;0.22;0.10;;;;;;;;;;5017277;28;20021;-59
2022/02/18 11:16:02;;;;;;;2.55;0.20;;;;;;;;;;5029594;28;20482;-59
2022/02/18 11:18:28;;;;;;;0.82;0.10;;;;;;;;;;5019476;28;20018;-59
2022/02/18 11:20:54;;;;;;;0.32;0.00;;;;;;;;;;5011935;28;20026;-59
2022/02/18 11:23:21;;;;;;;0.43;0.10;;;;;;;;;;5029224;28;20116;-58
2022/02/18 11:25:46;;;;;;;0.68;0.10;;;;;;;;;;5014224;28;20108;-59
2022/02/18 11:28:12;;;;;;;1.00;0.10;;;;;;;;;;5016602;28;20120;-59
2022/02/18 11:30:41;;;;;;;0.55;0.10;;;;;;;;;;5012338;28;20022;-59
2022/02/18 11:33:22;;;;;;;0.35;0.00;;;;;;;;;;5013056;28;20382;-59
2022/02/18 11:35:59;;;;;;;0.50;0.10;;;;;;;;;;5021701;28;20021;-59
2022/02/18 11:38:27;;;;;;;0.40;0.10;;;;;;;;;;5020680;28;20474;-59
2022/02/18 11:41:06;;;;;;;0.40;0.10;;;;;;;;;;5013253;28;20398;-59
2022/02/18 11:43:42;;;;;;;0.38;0.10;;;;;;;;;;5018420;28;20044;-59
2022/02/18 11:46:08;;;;;;;0.15;0.03;;;;;;;;;;5029924;28;20282;-59
2022/02/18 11:48:43;;;;;;;0.10;0.00;;;;;;;;;;5028091;28;20034;-59
2022/02/18 11:51:13;;;;;;;0.60;0.10;;;;;;;;;;5027159;28;20028;-59
2022/02/18 11:53:43;;;;;;;0.82;0.10;;;;;;;;;;5014644;28;20121;-59
2022/02/18 11:56:08;;;;;;;0.60;0.20;;;;;;;;;;5016609;28;20399;-59
2022/02/18 11:59:09;;;;;;;0.60;0.10;;;;;;;;;;5029151;28;20021;-59
2022/02/18 12:02:09;;;;;;;0.28;0.00;;;;;;;;;;5008718;28;20021;-59
2022/02/18 12:04:35;;;;;;;0.43;0.10;;;;;;;;;;4978345;28;20037;-59
2022/02/18 12:07:19;;;;;;;0.40;0.10;;;;;;;;;;5002966;28;20026;-59
2022/02/18 12:09:47;;;;;;;0.57;0.20;;;;;;;;;;5008289;28;20026;-58
2022/02/18 12:12:20;;;;;;;0.43;0.10;;;;;;;;;;5007506;28;20072;-59
2022/02/18 12:14:47;;;;;;;0.20;0.05;;;;;;;;;;5010434;28;20044;-59
2022/02/18 12:17:12;;;;;;;0.40;0.10;;;;;;;;;;5001491;28;20174;-58
2022/02/18 12:19:37;;;;;;;0.43;0.10;;;;;;;;;;4994700;28;20057;-59
2022/02/18 12:22:03;;;;;;;0.67;0.20;;;;;;;;;;4997208;28;20415;-59
2022/02/18 12:24:31;;;;;;;0.60;0.10;;;;;;;;;;4997904;28;20269;-58
2022/02/18 12:27:15;;;;;;;0.20;0.03;;;;;;;;;;5008669;28;20113;-58
2022/02/18 12:29:40;;;;;;;1.08;0.20;;;;;;;;;;4994996;28;20120;-58
2022/02/18 12:32:06;;;;;;;0.17;0.00;;;;;;;;;;4996299;28;20622;-59
2022/02/18 12:34:33;;;;;;;0.45;0.10;;;;;;;;;;5000943;28;20027;-59
2022/02/18 12:36:58;;;;;;;0.80;0.15;;;;;;;;;;5020667;28;20014;-56
2022/02/18 12:39:40;;;;;;;1.05;0.20;;;;;;;;;;5013845;28;20036;-58
2022/02/18 12:42:09;;;;;;;1.02;0.20;;;;;;;;;;5017978;28;20021;-58
2022/02/18 12:44:34;;;;;;;0.68;0.25;;;;;;;;;;5038694;28;20053;-58
2022/02/18 12:46:59;;;;;;;0.75;0.10;;;;;;;;;;5033177;28;20054;-59
2022/02/18 12:49:38;;;;;;;0.85;0.10;;;;;;;;;;5030870;28;20490;-58
2022/02/18 12:52:04;;;;;;;0.98;0.22;;;;;;;;;;5026566;28;20020;-60
2022/02/18 12:54:49;;;;;;;1.73;0.70;;;;;;;;;;5017067;28;20029;-66
2022/02/18 12:57:21;;;;;;;4.57;2.97;;;;;;;;;;5022602;28;20183;-59
2022/02/18 12:59:49;;;;;;;7.00;4.35;;;;;;;;;;5027667;28;20080;-57
2022/02/18 13:02:33;;;;;;;7.25;5.18;;;;;;;;;;5022577;28;20478;-59
2022/02/18 13:05:15;;;;;;;8.45;4.53;;;;;;;;;;5032896;28;20518;-59
2022/02/18 13:07:41;;;;;;;8.23;4.57;;;;;;;;;;5028556;28;20108;-58
2022/02/18 13:10:08;;;;;;;9.43;4.93;;;;;;;;;;5021033;28;20026;-59
2022/02/18 13:12:36;;;;;;;6.70;3.90;;;;;;;;;;5032610;28;20021;-59
2022/02/18 13:15:05;;;;;;;5.70;3.13;;;;;;;;;;5026005;28;20020;-59
2022/02/18 13:17:30;;;;;;;6.18;3.50;;;;;;;;;;5029390;28;20035;-58
2022/02/18 13:19:55;;;;;;;5.30;2.63;;;;;;;;;;5031023;28;20040;-59
2022/02/18 13:22:20;;;;;;;5.83;3.00;;;;;;;;;;5022660;28;20297;-59
2022/02/18 13:24:46;;;;;;;6.93;3.00;;;;;;;;;;5013682;28;20280;-59
2022/02/18 13:27:14;;;;;;;4.85;3.13;;;;;;;;;;5024682;28;20383;-59
2022/02/18 13:29:43;;;;;;;4.10;2.13;;;;;;;;;;5022698;28;20021;-59
2022/02/18 13:32:17;;;;;;;5.88;2.10;;;;;;;;;;5026698;28;20017;-59
2022/02/18 13:34:49;;;;;;;4.50;2.42;;;;;;;;;;5032933;28;20034;-59
2022/02/18 13:37:17;;;;;;;5.50;2.75;;;;;;;;;;5024391;28;20042;-59
2022/02/18 13:39:46;;;;;;;4.25;2.20;;;;;;;;;;5020634;28;20034;-59
2022/02/18 13:42:11;;;;;;;5.57;2.67;;;;;;;;;;5016600;28;20041;-59
2022/02/18 13:44:36;;;;;;;4.20;2.15;;;;;;;;;;5022564;28;20029;-59
2022/02/18 13:47:06;;;;;;;3.30;1.70;;;;;;;;;;5044888;28;20442;-58
2022/02/18 13:49:31;;;;;;;4.15;2.30;;;;;;;;;;5026305;28;20056;-60
2022/02/18 13:51:57;;;;;;;4.40;2.30;;;;;;;;;;5020720;28;20391;-60
2022/02/18 13:54:27;;;;;;;4.72;2.55;;;;;;;;;;5025634;28;20036;-58
2022/02/18 13:57:03;;;;;;;4.00;2.50;;;;;;;;;;5024529;28;20038;-58
2022/02/18 13:59:28;;;;;;;4.72;2.03;;;;;;;;;;5020545;28;20097;-58
2022/02/18 14:01:55;;;;;;;5.57;2.45;;;;;;;;;;5030103;28;20162;-58
2022/02/18 14:04:20;;;;;;;4.32;2.38;;;;;;;;;;5019924;28;20488;-58
2022/02/18 14:06:46;;;;;;;5.53;2.07;;;;;;;;;;5031502;28;20017;-57
2022/02/18 14:09:11;;;;;;;5.28;2.05;;;;;;;;;;5035269;28;20037;-57
2022/02/18 14:11:49;;;;;;;4.38;1.95;;;;;;;;;;5034381;28;20024;-56
2022/02/18 14:14:17;;;;;;;2.45;1.40;;;;;;;;;;5048171;28;20025;-57
2022/02/18 14:16:52;;;;;;;3.78;2.00;;;;;;;;;;5036311;28;20070;-58
2022/02/18 14:19:18;;;;;;;4.90;2.13;;;;;;;;;;5023652;28;20030;-58
2022/02/18 14:21:55;;;;;;;4.38;1.25;;;;;;;;;;5034679;28;20375;-58
2022/02/18 14:24:29;;;;;;;3.17;1.80;;;;;;;;;;5030273;28;20022;-57
2022/02/18 14:26:54;;;;;;;4.72;1.52;;;;;;;;;;5031690;28;20018;-58
2022/02/18 14:29:19;;;;;;;2.90;1.50;;;;;;;;;;5040707;28;21314;-57
2022/02/18 14:31:53;;;;;;;2.60;1.60;;;;;;;;;;5031562;28;20103;-58
2022/02/18 14:34:18;;;;;;;2.67;1.30;;;;;;;;;;5024548;28;20761;-54
2022/02/18 14:36:44;;;;;;;1.90;1.00;;;;;;;;;;5034611;28;20105;-58
2022/02/18 14:39:10;;;;;;;2.90;1.45;;;;;;;;;;5034781;28;20323;-58